createdAt,value
2022-08-02T00:00:58.730Z,11.90
2022-08-02T00:02:01.419Z,6.53
2022-08-02T00:03:04.370Z,7.82
2022-08-02T00:04:06.953Z,6.18
2022-08-02T00:05:09.843Z,11.00
2022-08-02T00:06:12.319Z,8.43
2022-08-02T00:07:15.834Z,7.43
2022-08-02T00:08:18.543Z,11.55
2022-08-02T00:09:21.345Z,8.02
2022-08-02T00:10:25.638Z,7.93
2022-08-02T00:11:28.426Z,8.90
2022-08-02T00:12:31.145Z,10.32
2022-08-02T00:13:34.045Z,8.65
2022-08-02T00:14:37.183Z,9.48
2022-08-02T00:15:39.912Z,6.18
2022-08-02T00:16:42.692Z,8.68
2022-08-02T00:17:46.451Z,10.27
2022-08-02T00:18:51.239Z,7.35
2022-08-02T00:19:53.917Z,12.48
2022-08-02T00:20:56.504Z,11.10
2022-08-02T00:21:59.138Z,7.53
2022-08-02T00:23:01.825Z,7.32
2022-08-02T00:24:29.176Z,10.27
2022-08-02T00:25:27.968Z,7.70
2022-08-02T00:26:30.703Z,8.35
2022-08-02T00:27:33.345Z,5.60
2022-08-02T00:28:35.794Z,5.75
2022-08-02T00:29:42.600Z,8.82
2022-08-02T00:30:56.269Z,9.20
2022-08-02T00:31:58.895Z,9.10
2022-08-02T00:33:02.704Z,8.85
2022-08-02T00:34:29.121Z,9.77
2022-08-02T00:35:28.240Z,7.88
2022-08-02T00:36:30.706Z,6.80
2022-08-02T00:37:33.299Z,7.38
2022-08-02T00:38:35.847Z,8.60
2022-08-02T00:39:38.605Z,7.20
2022-08-02T00:40:41.566Z,6.72
2022-08-02T00:41:48.370Z,8.05
2022-08-02T00:43:11.447Z,8.02
2022-08-02T00:44:15.362Z,9.27
2022-08-02T00:45:17.943Z,6.30
2022-08-02T00:46:21.063Z,8.10
2022-08-02T00:47:23.667Z,8.18
2022-08-02T00:48:26.218Z,8.35
2022-08-02T00:49:29.157Z,7.15
2022-08-02T00:50:32.833Z,9.82
2022-08-02T00:51:35.509Z,10.88
2022-08-02T00:52:38.290Z,6.30
2022-08-02T00:53:41.274Z,9.35
2022-08-02T00:54:43.932Z,8.77
2022-08-02T00:55:46.788Z,12.43
2022-08-02T00:56:50.073Z,5.97
2022-08-02T00:57:54.694Z,8.48
2022-08-02T00:58:57.430Z,9.13
2022-08-02T00:59:59.987Z,7.50
2022-08-02T01:01:03.804Z,7.95
2022-08-02T01:02:06.585Z,9.63
2022-08-02T01:03:09.414Z,12.48
2022-08-02T01:04:14.164Z,10.15
2022-08-02T01:05:18.405Z,11.20
2022-08-02T01:06:20.991Z,8.23
2022-08-02T01:07:23.676Z,6.97
2022-08-02T01:08:29.471Z,7.38
2022-08-02T01:09:34.530Z,8.23
2022-08-02T01:10:37.487Z,7.47
2022-08-02T01:11:40.089Z,10.93
2022-08-02T01:12:42.803Z,7.72
2022-08-02T01:13:45.482Z,9.38
2022-08-02T01:14:52.002Z,7.35
2022-08-02T01:16:10.332Z,6.43
2022-08-02T01:17:35.335Z,6.47
2022-08-02T01:18:45.445Z,7.75
2022-08-02T01:20:05.858Z,8.18
2022-08-02T01:21:38.798Z,8.68
2022-08-02T01:23:03.227Z,5.80
2022-08-02T01:24:14.446Z,6.55
2022-08-02T01:25:50.787Z,11.48
2022-08-02T01:27:01.962Z,9.90
2022-08-02T01:28:28.738Z,8.55
2022-08-02T01:29:34.812Z,8.25
2022-08-02T01:30:39.328Z,5.93
2022-08-02T01:32:17.395Z,10.68
2022-08-02T01:33:21.426Z,9.75
2022-08-02T01:34:34.402Z,8.65
2022-08-02T01:35:51.058Z,11.23
2022-08-02T01:37:18.397Z,11.95
2022-08-02T01:38:35.744Z,8.70
2022-08-02T01:39:41.100Z,6.55
2022-08-02T01:40:45.619Z,9.13
2022-08-02T01:41:49.005Z,13.75
2022-08-02T01:43:02.722Z,7.15
2022-08-02T01:44:08.059Z,8.52
2022-08-02T01:45:12.929Z,7.43
2022-08-02T01:46:17.134Z,9.20
2022-08-02T01:47:26.780Z,14.93
2022-08-02T01:48:30.227Z,9.02
2022-08-02T01:49:33.721Z,8.20
2022-08-02T01:50:37.612Z,10.60
2022-08-02T01:51:59.200Z,13.88
2022-08-02T01:53:06.990Z,10.50
2022-08-02T01:54:13.185Z,10.52
2022-08-02T01:55:33.447Z,7.53
2022-08-02T01:56:48.381Z,7.78
2022-08-02T01:57:53.911Z,8.52
2022-08-02T01:58:56.823Z,8.18
2022-08-02T02:00:01.627Z,8.15
2022-08-02T02:01:07.186Z,7.15
2022-08-02T02:02:11.026Z,9.18
2022-08-02T02:03:24.812Z,15.25
2022-08-02T02:04:29.686Z,9.50
2022-08-02T02:05:32.817Z,7.78
2022-08-02T02:06:38.241Z,7.85
2022-08-02T02:07:41.697Z,7.97
2022-08-02T02:08:45.005Z,6.70
2022-08-02T02:09:50.683Z,11.93
2022-08-02T02:10:53.921Z,8.18
2022-08-02T02:12:14.560Z,9.63
2022-08-02T02:13:19.426Z,9.38
2022-08-02T02:14:22.244Z,8.25
2022-08-02T02:15:25.952Z,9.07
2022-08-02T02:16:30.485Z,10.20
2022-08-02T02:18:10.722Z,15.40
2022-08-02T02:18:56.326Z,8.93
2022-08-02T02:20:00.656Z,10.27
2022-08-02T02:21:03.324Z,17.13
2022-08-02T02:22:06.153Z,11.18
2022-08-02T02:23:09.791Z,14.43
2022-08-02T02:24:12.718Z,9.70
2022-08-02T02:25:19.390Z,11.85
2022-08-02T02:26:33.062Z,10.65
2022-08-02T02:27:41.648Z,12.52
2022-08-02T02:28:49.940Z,12.65
2022-08-02T02:29:54.254Z,8.50
2022-08-02T02:31:03.847Z,9.07
2022-08-02T02:32:06.840Z,9.68
2022-08-02T02:33:10.678Z,8.35
2022-08-02T02:34:26.122Z,7.25
2022-08-02T02:35:30.887Z,8.55
2022-08-02T02:36:33.994Z,11.50
2022-08-02T02:37:38.224Z,11.93
2022-08-02T02:38:41.539Z,8.80
2022-08-02T02:39:45.385Z,9.13
2022-08-02T02:40:49.190Z,8.20
2022-08-02T02:41:53.800Z,12.80
2022-08-02T02:42:57.352Z,10.38
2022-08-02T02:44:02.397Z,9.30
2022-08-02T02:45:05.866Z,9.55
2022-08-02T02:46:10.725Z,12.07
2022-08-02T02:47:15.851Z,9.35
2022-08-02T02:48:19.136Z,10.95
2022-08-02T02:49:23.299Z,10.10
2022-08-02T02:50:26.064Z,10.68
2022-08-02T02:51:29.957Z,12.82
2022-08-02T02:52:33.011Z,10.30
2022-08-02T02:54:33.644Z,8.25
2022-08-02T02:55:00.141Z,13.43
2022-08-02T02:56:02.993Z,9.68
2022-08-02T02:57:06.602Z,12.00
2022-08-02T02:58:09.800Z,8.52
2022-08-02T02:59:15.353Z,11.52
2022-08-02T03:00:18.186Z,9.85
2022-08-02T03:01:55.562Z,9.63
2022-08-02T03:02:57.066Z,10.07
2022-08-02T03:04:06.548Z,7.22
2022-08-02T03:05:10.585Z,15.40
2022-08-02T03:06:15.576Z,12.07
2022-08-02T03:07:18.868Z,12.00
2022-08-02T03:08:21.615Z,8.85
2022-08-02T03:09:24.329Z,11.40
2022-08-02T03:10:27.690Z,11.73
2022-08-02T03:11:31.068Z,12.80
2022-08-02T03:12:36.942Z,8.85
2022-08-02T03:13:40.329Z,12.73
2022-08-02T03:14:45.862Z,12.43
2022-08-02T03:15:55.514Z,13.63
2022-08-02T03:16:58.152Z,12.63
2022-08-02T03:18:00.783Z,7.68
2022-08-02T03:19:04.023Z,8.95
2022-08-02T03:20:14.865Z,11.30
2022-08-02T03:21:17.649Z,9.25
2022-08-02T03:22:20.160Z,9.63
2022-08-02T03:23:22.877Z,10.20
2022-08-02T03:24:28.109Z,9.23
2022-08-02T03:25:31.059Z,9.25
2022-08-02T03:26:33.751Z,12.75
2022-08-02T03:27:36.449Z,9.68
2022-08-02T03:28:39.336Z,10.68
2022-08-02T03:29:41.925Z,7.97
2022-08-02T03:30:44.508Z,8.18
2022-08-02T03:31:47.110Z,9.15
2022-08-02T03:32:49.867Z,7.47
2022-08-02T03:33:53.526Z,9.68
2022-08-02T03:34:56.374Z,6.88
2022-08-02T03:36:01.899Z,11.00
2022-08-02T03:37:04.788Z,10.48
2022-08-02T03:38:07.817Z,9.77
2022-08-02T03:39:11.579Z,6.75
2022-08-02T03:40:14.379Z,9.35
2022-08-02T03:41:18.330Z,9.63
2022-08-02T03:42:21.625Z,11.60
2022-08-02T03:43:24.594Z,5.82
2022-08-02T03:44:32.015Z,6.72
2022-08-02T03:45:34.889Z,8.95
2022-08-02T03:46:39.644Z,8.07
2022-08-02T03:47:42.998Z,8.52
2022-08-02T03:48:46.970Z,9.82
2022-08-02T03:49:51.485Z,8.88
2022-08-02T03:50:54.638Z,9.75
2022-08-02T03:51:57.382Z,7.05
2022-08-02T03:53:00.587Z,7.95
2022-08-02T03:54:03.805Z,7.38
2022-08-02T03:55:06.751Z,6.00
2022-08-02T03:56:10.281Z,8.18
2022-08-02T03:57:13.311Z,7.43
2022-08-02T03:58:22.892Z,5.45
2022-08-02T03:59:25.544Z,6.72
2022-08-02T04:00:34.757Z,8.52
2022-08-02T04:01:38.061Z,10.57
2022-08-02T04:02:40.801Z,5.70
2022-08-02T04:03:43.500Z,6.75
2022-08-02T04:04:46.131Z,3.72
2022-08-02T04:06:03.819Z,7.05
2022-08-02T04:07:07.750Z,4.28
2022-08-02T04:08:36.991Z,7.85
2022-08-02T04:09:33.602Z,5.05
2022-08-02T04:10:56.656Z,5.68
2022-08-02T04:11:59.769Z,6.45
2022-08-02T04:13:02.415Z,5.82
2022-08-02T04:14:08.053Z,11.43
2022-08-02T04:15:14.171Z,4.90
2022-08-02T04:16:21.501Z,5.07
2022-08-02T04:17:24.417Z,3.67
2022-08-02T04:18:30.709Z,4.05
2022-08-02T04:19:47.841Z,6.95
2022-08-02T04:20:52.082Z,8.23
2022-08-02T04:21:55.377Z,5.50
2022-08-02T04:23:10.400Z,4.70
2022-08-02T04:24:13.114Z,5.20
2022-08-02T04:25:25.556Z,7.28
2022-08-02T04:26:41.495Z,9.50
2022-08-02T04:28:15.534Z,8.93
2022-08-02T04:29:08.866Z,8.77
2022-08-02T04:30:12.004Z,12.38
2022-08-02T04:31:16.834Z,4.72
2022-08-02T04:32:19.619Z,4.90
2022-08-02T04:33:22.916Z,6.88
2022-08-02T04:34:25.904Z,5.45
2022-08-02T04:35:28.571Z,6.38
2022-08-02T04:36:31.983Z,6.97
2022-08-02T04:37:35.899Z,4.32
2022-08-02T04:38:38.794Z,4.93
2022-08-02T04:39:42.330Z,5.15
2022-08-02T04:40:55.561Z,7.47
2022-08-02T04:41:58.274Z,8.75
2022-08-02T04:43:01.003Z,6.75
2022-08-02T04:44:03.920Z,4.57
2022-08-02T04:45:07.446Z,4.47
2022-08-02T04:46:10.001Z,6.85
2022-08-02T04:47:12.788Z,6.60
2022-08-02T04:48:15.488Z,4.05
2022-08-02T04:49:18.405Z,6.75
2022-08-02T04:50:21.084Z,5.50
2022-08-02T04:51:23.763Z,8.13
2022-08-02T04:52:45.537Z,3.03
2022-08-02T04:53:48.597Z,4.57
2022-08-02T04:54:53.923Z,5.95
2022-08-02T04:55:56.540Z,4.05
2022-08-02T04:56:59.125Z,6.55
2022-08-02T04:58:06.713Z,3.63
2022-08-02T04:59:16.694Z,4.85
2022-08-02T05:00:19.315Z,3.08
2022-08-02T05:01:22.115Z,5.43
2022-08-02T05:02:24.882Z,2.92
2022-08-02T05:03:27.475Z,8.38
2022-08-02T05:04:30.125Z,10.35
2022-08-02T05:05:33.590Z,4.50
2022-08-02T05:06:36.154Z,4.28
2022-08-02T05:07:38.768Z,4.50
2022-08-02T05:08:41.478Z,4.00
2022-08-02T05:09:44.027Z,5.70
2022-08-02T05:10:46.563Z,4.35
2022-08-02T05:11:55.136Z,5.10
2022-08-02T05:12:57.941Z,4.22
2022-08-02T05:14:00.648Z,2.83
2022-08-02T05:15:03.434Z,6.40
2022-08-02T05:16:06.042Z,5.80
2022-08-02T05:17:08.785Z,5.57
2022-08-02T05:18:12.390Z,3.30
2022-08-02T05:19:15.898Z,9.63
2022-08-02T05:20:18.984Z,5.15
2022-08-02T05:21:21.539Z,4.60
2022-08-02T05:22:24.227Z,1.98
2022-08-02T05:23:26.805Z,2.20
2022-08-02T05:24:29.651Z,4.47
2022-08-02T05:25:32.392Z,4.78
2022-08-02T05:26:34.866Z,4.28
2022-08-02T05:27:37.681Z,3.60
2022-08-02T05:28:40.353Z,5.80
2022-08-02T05:29:53.702Z,2.10
2022-08-02T05:30:56.958Z,2.20
2022-08-02T05:31:59.657Z,1.85
2022-08-02T05:33:02.515Z,5.97
2022-08-02T05:34:08.631Z,4.65
2022-08-02T05:35:14.259Z,5.47
2022-08-02T05:36:17.148Z,1.92
2022-08-02T05:37:20.367Z,3.92
2022-08-02T05:38:25.993Z,4.38
2022-08-02T05:39:31.867Z,7.70
2022-08-02T05:40:34.572Z,1.95
2022-08-02T05:41:37.327Z,2.13
2022-08-02T05:42:40.538Z,8.80
2022-08-02T05:43:43.011Z,5.32
2022-08-02T05:44:46.023Z,4.78
2022-08-02T05:45:48.973Z,1.98
2022-08-02T05:46:51.501Z,3.67
2022-08-02T05:47:54.159Z,4.50
2022-08-02T05:48:57.017Z,2.55
2022-08-02T05:49:59.804Z,4.63
2022-08-02T05:51:04.531Z,6.70
2022-08-02T05:52:20.290Z,5.78
2022-08-02T05:53:24.631Z,4.75
2022-08-02T05:54:39.611Z,3.47
2022-08-02T05:55:55.958Z,3.72
2022-08-02T05:57:07.150Z,4.22
2022-08-02T05:58:53.617Z,4.18
2022-08-02T05:59:56.148Z,4.80
2022-08-02T06:01:03.124Z,3.63
2022-08-02T06:02:20.812Z,2.28
2022-08-02T06:03:39.022Z,1.52
2022-08-02T06:04:57.452Z,1.90
2022-08-02T06:06:13.778Z,5.05
2022-08-02T06:07:18.267Z,2.45
2022-08-02T06:08:21.500Z,4.32
2022-08-02T06:09:26.784Z,1.67
2022-08-02T06:10:30.944Z,3.55
2022-08-02T06:11:37.317Z,6.93
2022-08-02T06:13:10.019Z,1.17
2022-08-02T06:14:17.004Z,3.40
2022-08-02T06:15:20.380Z,2.83
2022-08-02T06:16:31.869Z,2.58
2022-08-02T06:17:41.794Z,3.90
2022-08-02T06:18:49.185Z,1.63
2022-08-02T06:19:55.809Z,3.40
2022-08-02T06:22:34.075Z,2.65
2022-08-02T06:22:35.179Z,1.00
2022-08-02T06:23:42.407Z,1.83
2022-08-02T06:25:02.023Z,1.10
2022-08-02T06:26:07.156Z,2.72
2022-08-02T06:27:11.040Z,1.60
2022-08-02T06:28:14.388Z,1.73
2022-08-02T06:29:17.139Z,1.40
2022-08-02T06:30:20.039Z,5.45
2022-08-02T06:31:22.893Z,5.95
2022-08-02T06:32:27.350Z,3.22
2022-08-02T06:33:30.291Z,1.10
2022-08-02T06:34:37.063Z,1.92
2022-08-02T06:35:45.391Z,1.55
2022-08-02T06:36:57.517Z,1.48
2022-08-02T06:38:01.693Z,3.17
2022-08-02T06:39:05.658Z,1.02
2022-08-02T06:40:28.026Z,0.80
2022-08-02T06:41:41.018Z,2.70
2022-08-02T06:43:02.668Z,1.33
2022-08-02T06:44:40.582Z,1.20
2022-08-02T06:45:28.031Z,2.55
2022-08-02T06:46:38.023Z,1.73
2022-08-02T06:47:54.405Z,1.77
2022-08-02T06:48:57.735Z,2.88
2022-08-02T06:50:00.536Z,0.82
2022-08-02T06:51:04.180Z,2.25
2022-08-02T06:52:06.835Z,2.50
2022-08-02T06:53:09.890Z,1.15
2022-08-02T06:54:12.988Z,2.70
2022-08-02T06:55:15.683Z,1.77
2022-08-02T06:56:19.394Z,1.55
2022-08-02T06:57:21.944Z,3.95
2022-08-02T06:58:24.448Z,1.20
2022-08-02T06:59:27.172Z,2.45
2022-08-02T07:00:30.719Z,5.43
2022-08-02T07:01:38.666Z,0.88
2022-08-02T07:02:41.989Z,1.88
2022-08-02T07:03:44.744Z,2.08
2022-08-02T07:04:47.549Z,4.55
2022-08-02T07:05:50.212Z,2.15
2022-08-02T07:06:52.831Z,2.08
2022-08-02T07:07:56.118Z,2.60
2022-08-02T07:09:19.520Z,4.45
2022-08-02T07:10:21.640Z,1.77
2022-08-02T07:11:24.266Z,0.80
2022-08-02T07:12:27.105Z,1.55
2022-08-02T07:13:30.189Z,4.30
2022-08-02T07:14:32.873Z,2.90
2022-08-02T07:15:39.206Z,1.80
2022-08-02T07:16:52.119Z,9.00
2022-08-02T07:17:54.768Z,0.95
2022-08-02T07:18:57.371Z,1.17
2022-08-02T07:20:00.369Z,2.63
2022-08-02T07:21:06.199Z,5.60
2022-08-02T07:22:13.248Z,1.85
2022-08-02T07:23:16.282Z,0.88
2022-08-02T07:24:19.069Z,2.22
2022-08-02T07:25:22.074Z,0.40
2022-08-02T07:26:25.747Z,2.63
2022-08-02T07:27:28.842Z,1.10
2022-08-02T07:28:31.566Z,2.20
2022-08-02T07:29:45.268Z,0.77
2022-08-02T07:30:50.023Z,1.02
2022-08-02T07:31:52.793Z,4.88
2022-08-02T07:32:55.397Z,3.50
2022-08-02T07:33:58.142Z,3.60
2022-08-02T07:35:06.486Z,0.95
2022-08-02T07:36:16.718Z,1.52
2022-08-02T07:37:54.203Z,0.65
2022-08-02T07:38:49.886Z,3.35
2022-08-02T07:39:52.835Z,1.23
2022-08-02T07:40:56.165Z,4.45
2022-08-02T07:41:59.329Z,1.15
2022-08-02T07:43:04.201Z,4.30
2022-08-02T07:44:07.195Z,1.38
2022-08-02T07:45:10.768Z,0.45
2022-08-02T07:46:13.294Z,2.78
2022-08-02T07:47:16.091Z,2.22
2022-08-02T07:48:18.893Z,2.53
2022-08-02T07:49:21.491Z,1.08
2022-08-02T07:50:24.489Z,0.80
2022-08-02T07:51:27.174Z,3.42
2022-08-02T07:52:29.837Z,4.13
2022-08-02T07:53:50.625Z,1.45
2022-08-02T07:54:54.657Z,4.03
2022-08-02T07:55:57.528Z,1.60
2022-08-02T07:57:01.211Z,0.95
2022-08-02T07:58:04.780Z,2.60
2022-08-02T07:59:07.674Z,0.55
2022-08-02T08:00:10.727Z,6.88
2022-08-02T08:01:17.132Z,1.80
2022-08-02T08:02:19.894Z,1.40
2022-08-02T08:03:22.463Z,1.95
2022-08-02T08:04:25.267Z,3.05
2022-08-02T08:05:28.031Z,1.65
2022-08-02T08:06:31.059Z,1.63
2022-08-02T08:07:34.940Z,2.30
2022-08-02T08:08:37.611Z,2.38
2022-08-02T08:09:42.179Z,1.65
2022-08-02T08:10:45.468Z,2.92
2022-08-02T08:11:48.722Z,5.03
2022-08-02T08:12:51.307Z,2.30
2022-08-02T08:13:54.084Z,4.45
2022-08-02T08:14:56.860Z,3.45
2022-08-02T08:15:59.550Z,3.72
2022-08-02T08:17:02.185Z,6.68
2022-08-02T08:18:05.063Z,4.15
2022-08-02T08:19:07.695Z,14.38
2022-08-02T08:20:14.131Z,6.28
2022-08-02T08:21:18.865Z,3.15
2022-08-02T08:22:21.925Z,1.13
2022-08-02T08:23:25.107Z,2.13
2022-08-02T08:24:28.277Z,0.98
2022-08-02T08:25:30.877Z,0.98
2022-08-02T08:26:42.327Z,1.73
2022-08-02T08:27:52.320Z,0.93
2022-08-02T08:28:54.983Z,5.47
2022-08-02T08:29:58.168Z,0.93
2022-08-02T08:31:00.779Z,4.00
2022-08-02T08:32:03.658Z,1.20
2022-08-02T08:33:06.232Z,1.98
2022-08-02T08:34:09.247Z,2.05
2022-08-02T08:35:12.041Z,1.52
2022-08-02T08:36:16.642Z,1.02
2022-08-02T08:37:19.461Z,1.00
2022-08-02T08:38:22.683Z,1.17
2022-08-02T08:39:25.719Z,2.00
2022-08-02T08:40:28.552Z,2.47
2022-08-02T08:41:31.130Z,0.65
2022-08-02T08:42:34.661Z,2.75
2022-08-02T08:43:38.039Z,0.60
2022-08-02T08:44:40.621Z,1.70
2022-08-02T08:45:55.593Z,1.35
2022-08-02T08:47:00.508Z,2.40
2022-08-02T08:48:30.518Z,4.97
2022-08-02T08:49:52.302Z,2.83
2022-08-02T08:51:06.189Z,2.13
2022-08-02T08:52:11.832Z,0.98
2022-08-02T08:53:15.485Z,5.00
2022-08-02T08:54:19.073Z,1.00
2022-08-02T08:55:25.108Z,0.55
2022-08-02T08:56:33.555Z,1.60
2022-08-02T08:57:41.054Z,4.72
2022-08-02T08:58:45.452Z,6.85
2022-08-02T08:59:48.195Z,1.40
2022-08-02T09:00:51.491Z,8.65
2022-08-02T09:01:56.174Z,1.40
2022-08-02T09:02:59.351Z,2.25
2022-08-02T09:04:02.197Z,4.45
2022-08-02T09:05:05.340Z,3.35
2022-08-02T09:06:08.069Z,5.45
2022-08-02T09:07:10.880Z,1.52
2022-08-02T09:08:17.001Z,4.35
2022-08-02T09:09:19.781Z,2.15
2022-08-02T09:10:41.386Z,3.22
2022-08-02T09:11:44.248Z,0.75
2022-08-02T09:12:46.908Z,1.38
2022-08-02T09:13:57.870Z,1.27
2022-08-02T09:15:05.352Z,1.35
2022-08-02T09:16:11.799Z,1.55
2022-08-02T09:17:16.453Z,2.67
2022-08-02T09:18:19.190Z,0.50
2022-08-02T09:19:23.992Z,2.88
2022-08-02T09:20:30.645Z,0.90
2022-08-02T09:21:37.615Z,3.85
2022-08-02T09:22:40.325Z,1.52
2022-08-02T09:23:43.813Z,4.75
2022-08-02T09:24:49.257Z,1.02
2022-08-02T09:26:07.594Z,2.55
2022-08-02T09:27:15.000Z,2.15
2022-08-02T09:28:17.665Z,1.05
2022-08-02T09:29:23.871Z,0.60
2022-08-02T09:30:27.273Z,3.58
2022-08-02T09:31:30.049Z,1.45
2022-08-02T09:32:45.571Z,1.75
2022-08-02T09:33:54.502Z,3.47
2022-08-02T09:34:57.395Z,1.50
2022-08-02T09:36:06.853Z,1.15
2022-08-02T09:37:25.181Z,2.83
2022-08-02T09:38:28.294Z,2.92
2022-08-02T09:39:44.992Z,0.98
2022-08-02T09:40:50.773Z,0.70
2022-08-02T09:41:53.603Z,1.20
2022-08-02T09:42:59.675Z,2.47
2022-08-02T09:44:06.483Z,1.52
2022-08-02T09:45:10.355Z,1.10
2022-08-02T09:46:24.024Z,1.77
2022-08-02T09:47:31.108Z,1.15
2022-08-02T09:48:33.746Z,1.45
2022-08-02T09:49:52.633Z,2.83
2022-08-02T09:50:56.697Z,4.68
2022-08-02T09:52:01.964Z,4.95
2022-08-02T09:53:04.881Z,1.52
2022-08-02T09:54:09.916Z,0.90
2022-08-02T09:55:12.783Z,4.57
2022-08-02T09:56:35.408Z,1.15
2022-08-02T09:57:38.878Z,6.65
2022-08-02T09:58:41.564Z,1.48
2022-08-02T09:59:53.519Z,2.28
2022-08-02T10:00:59.077Z,5.68
2022-08-02T10:02:04.074Z,0.80
2022-08-02T10:03:16.679Z,1.60
2022-08-02T10:04:26.863Z,2.45
2022-08-02T10:05:55.751Z,4.30
2022-08-02T10:07:03.924Z,4.88
2022-08-02T10:08:07.231Z,1.08
2022-08-02T10:09:12.224Z,2.17
2022-08-02T10:10:14.926Z,3.22
2022-08-02T10:11:17.975Z,1.20
2022-08-02T10:12:23.163Z,2.70
2022-08-02T10:13:35.374Z,2.22
2022-08-02T10:14:38.691Z,1.38
2022-08-02T10:15:50.758Z,3.45
2022-08-02T10:16:54.756Z,3.13
2022-08-02T10:17:57.422Z,1.13
2022-08-02T10:19:02.217Z,1.30
2022-08-02T10:20:05.525Z,1.50
2022-08-02T10:21:33.624Z,1.70
2022-08-02T10:22:36.662Z,2.63
2022-08-02T10:23:40.777Z,2.75
2022-08-02T10:24:48.326Z,0.85
2022-08-02T10:25:51.802Z,0.93
2022-08-02T10:26:55.282Z,0.85
2022-08-02T10:28:05.112Z,2.33
2022-08-02T10:29:15.694Z,0.82
2022-08-02T10:30:18.484Z,2.03
2022-08-02T10:31:24.593Z,2.67
2022-08-02T10:32:32.360Z,3.95
2022-08-02T10:33:36.710Z,6.07
2022-08-02T10:35:18.215Z,1.67
2022-08-02T10:36:23.827Z,1.20
2022-08-02T10:37:32.793Z,0.93
2022-08-02T10:38:35.893Z,1.15
2022-08-02T10:39:40.252Z,2.33
2022-08-02T10:40:56.303Z,2.47
2022-08-02T10:41:58.948Z,1.00
2022-08-02T10:43:01.829Z,2.35
2022-08-02T10:44:04.635Z,1.50
2022-08-02T10:45:12.029Z,6.45
2022-08-02T10:46:33.527Z,2.13
2022-08-02T10:47:36.213Z,1.50
2022-08-02T10:49:18.569Z,3.15
2022-08-02T10:50:47.178Z,1.95
2022-08-02T10:51:55.495Z,0.88
2022-08-02T10:53:24.223Z,3.15
2022-08-02T10:54:31.669Z,2.85
2022-08-02T10:55:46.014Z,1.58
2022-08-02T10:56:50.093Z,10.23
2022-08-02T10:58:19.933Z,1.10
2022-08-02T10:59:26.947Z,2.28
2022-08-02T11:00:29.673Z,1.92
2022-08-02T11:01:38.811Z,0.82
2022-08-02T11:02:44.794Z,4.03
2022-08-02T11:03:47.290Z,1.30
2022-08-02T11:04:49.933Z,1.40
2022-08-02T11:06:06.670Z,2.28
2022-08-02T11:07:17.762Z,4.07
2022-08-02T11:08:21.890Z,2.45
2022-08-02T11:09:33.332Z,0.88
2022-08-02T11:10:38.798Z,4.25
2022-08-02T11:12:04.044Z,2.03
2022-08-02T11:13:15.193Z,3.80
2022-08-02T11:14:18.218Z,1.02
2022-08-02T11:15:21.097Z,0.90
2022-08-02T11:16:23.728Z,1.52
2022-08-02T11:17:29.167Z,2.17
2022-08-02T11:18:44.284Z,3.78
2022-08-02T11:20:12.414Z,1.73
2022-08-02T11:21:26.041Z,2.55
2022-08-02T11:22:28.664Z,1.63
2022-08-02T11:23:44.584Z,0.52
2022-08-02T11:24:48.907Z,3.60
2022-08-02T11:26:03.752Z,1.75
2022-08-02T11:27:22.197Z,1.73
2022-08-02T11:28:25.969Z,1.35
2022-08-02T11:29:38.783Z,2.22
2022-08-02T11:30:42.185Z,1.48
2022-08-02T11:31:45.701Z,1.80
2022-08-02T11:32:49.188Z,2.42
2022-08-02T11:33:52.143Z,1.30
2022-08-02T11:34:55.646Z,1.83
2022-08-02T11:36:03.284Z,1.42
2022-08-02T11:37:06.055Z,4.13
2022-08-02T11:38:20.053Z,4.03
2022-08-02T11:39:23.770Z,1.00
2022-08-02T11:40:38.178Z,1.65
2022-08-02T11:41:47.515Z,1.90
2022-08-02T11:42:50.723Z,1.90
2022-08-02T11:43:56.905Z,2.80
2022-08-02T11:44:59.745Z,1.60
2022-08-02T11:46:04.024Z,2.30
2022-08-02T11:47:08.374Z,2.47
2022-08-02T11:48:11.117Z,2.10
2022-08-02T11:49:18.410Z,1.30
2022-08-02T11:50:30.211Z,2.17
2022-08-02T11:51:33.134Z,4.65
2022-08-02T11:52:36.276Z,4.55
2022-08-02T11:53:49.643Z,2.50
2022-08-02T11:54:52.349Z,1.45
2022-08-02T11:55:57.293Z,3.42
2022-08-02T11:57:21.263Z,1.58
2022-08-02T11:58:24.245Z,1.50
2022-08-02T11:59:26.801Z,5.07
2022-08-02T12:00:30.514Z,2.30
2022-08-02T12:01:44.996Z,3.25
2022-08-02T12:02:49.229Z,1.77
2022-08-02T12:03:52.161Z,3.50
2022-08-02T12:04:57.944Z,2.50
2022-08-02T12:06:06.588Z,4.82
2022-08-02T12:07:14.931Z,3.85
2022-08-02T12:08:22.208Z,1.30
2022-08-02T12:09:29.626Z,2.03
2022-08-02T12:10:32.265Z,2.40
2022-08-02T12:11:39.154Z,2.53
2022-08-02T12:13:00.419Z,1.35
2022-08-02T12:14:03.764Z,7.13
2022-08-02T12:15:07.044Z,4.82
2022-08-02T12:16:32.321Z,1.42
2022-08-02T12:17:53.576Z,1.48
2022-08-02T12:19:14.914Z,1.95
2022-08-02T12:20:17.590Z,5.13
2022-08-02T12:21:27.717Z,2.95
2022-08-02T12:22:30.478Z,2.38
2022-08-02T12:23:32.999Z,4.57
2022-08-02T12:24:36.398Z,2.00
2022-08-02T12:25:39.307Z,2.63
2022-08-02T12:26:48.591Z,2.15
2022-08-02T12:27:53.399Z,1.30
2022-08-02T12:29:01.676Z,2.80
2022-08-02T12:30:04.517Z,5.55
2022-08-02T12:31:14.251Z,4.32
2022-08-02T12:32:24.737Z,3.13
2022-08-02T12:34:32.590Z,2.08
2022-08-02T12:35:35.364Z,2.38
2022-08-02T12:36:40.011Z,2.88
2022-08-02T12:37:47.883Z,4.43
2022-08-02T12:38:54.360Z,3.10
2022-08-02T12:39:57.016Z,2.40
2022-08-02T12:41:30.513Z,1.98
2022-08-02T12:42:50.212Z,6.63
2022-08-02T12:43:53.421Z,3.08
2022-08-02T12:45:00.887Z,1.20
2022-08-02T12:46:03.454Z,3.75
2022-08-02T12:47:11.935Z,6.32
2022-08-02T12:48:14.921Z,5.50
2022-08-02T12:49:19.820Z,1.52
2022-08-02T12:50:29.650Z,3.70
2022-08-02T12:51:56.883Z,1.70
2022-08-02T12:53:12.772Z,1.88
2022-08-02T12:54:27.444Z,1.40
2022-08-02T12:56:01.335Z,3.17
2022-08-02T12:57:00.536Z,2.63
2022-08-02T12:58:05.272Z,2.28
2022-08-02T12:59:07.762Z,3.22
2022-08-02T13:00:10.851Z,6.65
2022-08-02T13:01:22.029Z,6.10
2022-08-02T13:02:24.814Z,5.28
2022-08-02T13:04:09.754Z,1.30
2022-08-02T13:04:51.160Z,1.88
2022-08-02T13:05:57.239Z,4.03
2022-08-02T13:07:02.226Z,2.55
2022-08-02T13:08:06.117Z,3.10
2022-08-02T13:09:13.600Z,4.75
2022-08-02T13:10:17.002Z,2.60
2022-08-02T13:11:19.705Z,1.25
2022-08-02T13:12:22.430Z,2.13
2022-08-02T13:13:25.112Z,2.47
2022-08-02T13:14:28.066Z,1.63
2022-08-02T13:15:49.898Z,2.47
2022-08-02T13:16:53.372Z,2.22
2022-08-02T13:17:56.862Z,3.28
2022-08-02T13:19:00.222Z,6.15
2022-08-02T13:20:03.429Z,4.20
2022-08-02T13:21:08.388Z,6.80
2022-08-02T13:22:22.367Z,2.58
2022-08-02T13:23:26.391Z,4.22
2022-08-02T13:24:55.945Z,1.20
2022-08-02T13:27:04.511Z,3.47
2022-08-02T13:28:11.584Z,6.28
2022-08-02T13:29:14.664Z,1.67
2022-08-02T13:30:17.248Z,3.00
2022-08-02T13:31:36.020Z,5.47
2022-08-02T13:32:39.803Z,1.27
2022-08-02T13:33:42.465Z,4.40
2022-08-02T13:34:45.382Z,1.58
2022-08-02T13:35:48.664Z,3.80
2022-08-02T13:36:51.312Z,2.58
2022-08-02T13:37:53.878Z,2.50
2022-08-02T13:38:56.530Z,2.65
2022-08-02T13:40:20.495Z,1.35
2022-08-02T13:41:22.259Z,3.78
2022-08-02T13:42:24.974Z,1.50
2022-08-02T13:43:53.734Z,2.33
2022-08-02T13:44:50.820Z,1.67
2022-08-02T13:45:53.640Z,2.80
2022-08-02T13:46:56.420Z,1.35
2022-08-02T13:48:05.217Z,2.50
2022-08-02T13:49:08.395Z,2.03
2022-08-02T13:50:11.182Z,3.15
2022-08-02T13:51:14.737Z,2.05
2022-08-02T13:52:18.198Z,5.20
2022-08-02T13:53:20.833Z,2.50
2022-08-02T13:54:23.563Z,2.70
2022-08-02T13:55:26.415Z,1.83
2022-08-02T13:56:35.846Z,5.55
2022-08-02T13:57:39.039Z,1.77
2022-08-02T13:58:44.271Z,3.10
2022-08-02T13:59:56.847Z,2.17
2022-08-02T14:01:01.319Z,2.95
2022-08-02T14:02:04.198Z,2.42
2022-08-02T14:03:07.606Z,1.67
2022-08-02T14:04:10.411Z,5.53
2022-08-02T14:05:12.960Z,2.78
2022-08-02T14:06:15.623Z,2.15
2022-08-02T14:07:18.322Z,3.80
2022-08-02T14:08:22.966Z,7.53
2022-08-02T14:09:26.265Z,2.35
2022-08-02T14:10:29.071Z,2.30
2022-08-02T14:11:33.465Z,3.72
2022-08-02T14:12:36.780Z,2.55
2022-08-02T14:13:39.570Z,2.72
2022-08-02T14:14:42.216Z,1.95
2022-08-02T14:15:45.429Z,2.20
2022-08-02T14:16:48.111Z,4.63
2022-08-02T14:17:50.898Z,7.00
2022-08-02T14:18:55.545Z,4.57
2022-08-02T14:19:58.339Z,1.55
2022-08-02T14:21:01.207Z,6.38
2022-08-02T14:22:11.194Z,6.10
2022-08-02T14:23:14.961Z,5.05
2022-08-02T14:24:19.192Z,8.57
2022-08-02T14:25:21.984Z,2.05
2022-08-02T14:26:27.645Z,1.50
2022-08-02T14:27:31.331Z,5.25
2022-08-02T14:28:42.270Z,4.38
2022-08-02T14:29:51.297Z,5.18
2022-08-02T14:30:53.943Z,1.65
2022-08-02T14:31:56.551Z,2.05
2022-08-02T14:32:59.273Z,3.08
2022-08-02T14:34:02.065Z,1.10
2022-08-02T14:35:05.245Z,1.70
2022-08-02T14:36:07.915Z,2.20
2022-08-02T14:37:11.222Z,3.70
2022-08-02T14:38:13.817Z,4.75
2022-08-02T14:39:16.370Z,4.90
2022-08-02T14:40:31.499Z,2.08
2022-08-02T14:41:59.277Z,2.20
2022-08-02T14:43:00.633Z,3.40
2022-08-02T14:44:04.403Z,3.15
2022-08-02T14:45:07.291Z,2.05
2022-08-02T14:46:09.995Z,1.83
2022-08-02T14:47:12.636Z,6.72